createdAt,value
2023-04-02T00:00:09.644Z,11.27
2023-04-02T00:03:22.338Z,11.19
2023-04-02T00:06:35.107Z,11.17
2023-04-02T00:09:42.644Z,11.21
2023-04-02T00:13:00.336Z,11.20
2023-04-02T00:16:05.714Z,11.21
2023-04-02T00:19:18.370Z,11.09
2023-04-02T00:22:28.053Z,11.12
2023-04-02T00:25:42.987Z,11.14
2023-04-02T00:28:45.361Z,11.15
2023-04-02T00:31:52.781Z,11.15
2023-04-02T00:34:58.372Z,11.05
2023-04-02T00:38:02.034Z,11.06
2023-04-02T00:41:21.239Z,11.06
2023-04-02T00:44:23.742Z,11.06
2023-04-02T00:47:32.696Z,11.02
2023-04-02T00:50:39.974Z,11.08
2023-04-02T00:53:48.185Z,11.04
2023-04-02T00:56:54.468Z,11.05
2023-04-02T01:00:09.018Z,11.00
2023-04-02T01:03:22.917Z,11.06
2023-04-02T01:06:34.376Z,11.08
2023-04-02T01:09:51.874Z,11.04
2023-04-02T01:13:23.250Z,11.04
2023-04-02T01:16:36.884Z,11.05
2023-04-02T01:20:33.391Z,11.06
2023-04-02T01:24:07.202Z,11.04
2023-04-02T01:27:27.218Z,10.99
2023-04-02T01:30:36.588Z,11.01
2023-04-02T01:33:41.581Z,10.97
2023-04-02T01:37:13.078Z,10.97
2023-04-02T01:40:50.425Z,11.02
2023-04-02T01:44:14.286Z,10.91
2023-04-02T01:47:20.428Z,10.99
2023-04-02T01:50:31.667Z,10.97
2023-04-02T01:53:40.428Z,10.96
2023-04-02T01:56:47.244Z,10.92
2023-04-02T01:59:49.772Z,10.93
2023-04-02T02:02:55.102Z,10.92
2023-04-02T02:05:58.223Z,10.92
2023-04-02T02:09:06.625Z,10.93
2023-04-02T02:12:14.967Z,10.96
2023-04-02T02:15:22.127Z,10.97
2023-04-02T02:18:27.927Z,11.02
2023-04-02T02:21:46.521Z,10.98
2023-04-02T02:24:54.523Z,10.94
2023-04-02T02:28:17.925Z,10.99
2023-04-02T02:31:33.195Z,10.92
2023-04-02T02:34:45.866Z,10.83
2023-04-02T02:37:57.221Z,10.96
2023-04-02T02:41:10.417Z,10.93
2023-04-02T02:44:28.728Z,10.88
2023-04-02T02:47:34.893Z,10.92
2023-04-02T02:50:41.218Z,10.75
2023-04-02T02:53:56.312Z,10.95
2023-04-02T02:57:04.319Z,10.95
2023-04-02T03:00:09.953Z,10.91
2023-04-02T03:03:24.986Z,10.89
2023-04-02T03:06:32.230Z,10.92
2023-04-02T03:09:57.271Z,10.91
2023-04-02T03:13:08.566Z,10.90
2023-04-02T03:16:13.199Z,10.85
2023-04-02T03:19:47.948Z,10.78
2023-04-02T03:23:01.262Z,10.76
2023-04-02T03:26:29.656Z,10.82
2023-04-02T03:29:42.280Z,10.87
2023-04-02T03:32:49.321Z,10.74
2023-04-02T03:35:57.955Z,10.84
2023-04-02T03:39:10.007Z,10.81
2023-04-02T03:42:18.384Z,10.80
2023-04-02T03:45:28.616Z,10.73
2023-04-02T03:48:40.911Z,10.75
2023-04-02T03:52:00.493Z,10.68
2023-04-02T03:55:15.914Z,10.65
2023-04-02T03:58:29.732Z,10.62
2023-04-02T04:02:02.602Z,10.62
2023-04-02T04:05:06.918Z,10.56
2023-04-02T04:08:17.690Z,10.53
2023-04-02T04:11:29.789Z,10.52
2023-04-02T04:14:38.576Z,10.53
2023-04-02T04:18:11.694Z,10.52
2023-04-02T04:21:30.269Z,10.51
2023-04-02T04:24:39.876Z,10.49
2023-04-02T04:28:08.745Z,10.54
2023-04-02T04:31:30.936Z,10.49
2023-04-02T04:34:51.505Z,10.60
2023-04-02T04:38:04.778Z,10.62
2023-04-02T04:41:28.964Z,10.55
2023-04-02T04:45:01.075Z,10.55
2023-04-02T04:48:05.997Z,10.53
2023-04-02T04:51:20.620Z,10.38
2023-04-02T04:54:31.107Z,10.46
2023-04-02T04:57:38.046Z,10.48
2023-04-02T05:00:54.550Z,10.58
2023-04-02T05:04:12.883Z,10.55
2023-04-02T05:07:27.858Z,10.63
2023-04-02T05:10:37.841Z,10.72
2023-04-02T05:13:52.581Z,10.77
2023-04-02T05:17:04.812Z,10.85
2023-04-02T05:20:16.435Z,11.06
2023-04-02T05:23:34.177Z,11.14
2023-04-02T05:26:50.439Z,11.23
2023-04-02T05:30:06.341Z,11.44
2023-04-02T05:33:27.869Z,11.83
2023-04-02T05:36:33.088Z,12.30
2023-04-02T05:39:36.660Z,12.81
2023-04-02T05:42:43.354Z,13.15
2023-04-02T05:45:53.842Z,13.42
2023-04-02T05:49:01.912Z,13.75
2023-04-02T05:52:13.997Z,13.99
2023-04-02T05:55:16.793Z,14.16
2023-04-02T06:01:45.706Z,14.74
2023-04-02T06:05:07.715Z,14.38
2023-04-02T06:08:17.383Z,14.25
2023-04-02T06:11:28.574Z,14.57
2023-04-02T06:14:32.140Z,14.82
2023-04-02T06:18:03.970Z,15.02
2023-04-02T06:21:06.557Z,15.23
2023-04-02T06:24:14.462Z,15.58
2023-04-02T06:27:20.162Z,16.05
2023-04-02T06:30:28.284Z,16.60
2023-04-02T06:33:31.958Z,17.02
2023-04-02T06:36:37.278Z,17.18
2023-04-02T06:39:43.164Z,17.87
2023-04-02T06:42:48.495Z,18.49
2023-04-02T06:46:28.303Z,18.47
2023-04-02T06:50:16.752Z,18.78
2023-04-02T06:53:26.562Z,17.91
2023-04-02T06:57:09.116Z,17.67
2023-04-02T07:00:47.555Z,17.90
2023-04-02T07:03:59.479Z,18.84
2023-04-02T07:07:10.303Z,19.33
2023-04-02T07:10:16.128Z,19.64
2023-04-02T07:13:22.991Z,19.73
2023-04-02T07:16:26.976Z,20.93
2023-04-02T07:19:32.286Z,21.41
2023-04-02T07:22:37.741Z,20.95
2023-04-02T07:25:43.058Z,20.83
2023-04-02T07:28:45.572Z,19.95
2023-04-02T07:31:47.900Z,19.65
2023-04-02T07:34:54.467Z,20.30
2023-04-02T07:37:56.753Z,20.18
2023-04-02T07:41:07.383Z,20.39
2023-04-02T07:44:10.972Z,20.07
2023-04-02T07:47:13.246Z,19.63
2023-04-02T07:50:20.401Z,19.05
2023-04-02T07:53:29.986Z,18.94
2023-04-02T07:56:35.981Z,18.81
2023-04-02T07:59:40.405Z,19.04
2023-04-02T08:02:43.003Z,18.97
2023-04-02T08:05:53.695Z,18.56
2023-04-02T08:08:57.712Z,18.86
2023-04-02T08:11:59.976Z,18.83
2023-04-02T08:15:03.190Z,19.36
2023-04-02T08:18:08.044Z,19.97
2023-04-02T08:21:13.742Z,19.72
2023-04-02T08:24:20.083Z,19.96
2023-04-02T08:27:28.572Z,19.52
2023-04-02T08:30:31.257Z,19.12
2023-04-02T08:33:38.842Z,18.46
2023-04-02T08:36:44.221Z,18.87
2023-04-02T08:39:50.912Z,19.08
2023-04-02T08:42:59.567Z,18.20
2023-04-02T08:46:31.029Z,18.76
2023-04-02T08:49:42.221Z,18.86
2023-04-02T08:52:46.819Z,18.82
2023-04-02T08:56:05.688Z,19.04
2023-04-02T08:59:29.117Z,20.81
2023-04-02T09:02:43.579Z,21.55
2023-04-02T09:05:50.424Z,21.78
2023-04-02T09:08:57.259Z,23.53
2023-04-02T09:12:04.304Z,23.90
2023-04-02T09:15:18.377Z,24.23
2023-04-02T09:18:23.283Z,22.45
2023-04-02T09:21:41.308Z,21.05
2023-04-02T09:24:53.676Z,20.83
2023-04-02T09:27:58.083Z,20.32
2023-04-02T09:31:17.059Z,19.91
2023-04-02T09:34:36.625Z,19.76
2023-04-02T09:37:40.440Z,19.57
2023-04-02T09:40:54.769Z,18.94
2023-04-02T09:44:23.469Z,19.04
2023-04-02T09:47:27.354Z,18.99
2023-04-02T09:50:36.105Z,18.54
2023-04-02T09:53:46.682Z,18.46
2023-04-02T09:57:01.747Z,17.78
2023-04-02T10:00:31.407Z,17.81
2023-04-02T10:03:51.421Z,18.12
2023-04-02T10:06:57.889Z,18.09
2023-04-02T10:10:34.641Z,18.33
2023-04-02T10:13:54.409Z,18.50
2023-04-02T10:17:10.090Z,17.94
2023-04-02T10:20:27.313Z,18.06
2023-04-02T10:23:31.984Z,18.10
2023-04-02T10:26:47.498Z,18.45
2023-04-02T10:30:14.748Z,18.80
2023-04-02T10:33:24.260Z,18.64
2023-04-02T10:36:54.659Z,18.70
2023-04-02T10:40:42.287Z,18.24
2023-04-02T10:43:59.302Z,18.46
2023-04-02T10:47:22.437Z,18.55
2023-04-02T10:50:35.968Z,18.72
2023-04-02T10:54:04.879Z,18.66
2023-04-02T10:57:07.217Z,18.33
2023-04-02T11:00:15.949Z,18.14
2023-04-02T11:03:36.613Z,18.55
2023-04-02T11:06:47.141Z,18.78
2023-04-02T11:09:53.340Z,18.74
2023-04-02T11:13:07.859Z,18.59
2023-04-02T11:16:16.537Z,18.36
2023-04-02T11:19:18.989Z,18.07
2023-04-02T11:22:27.433Z,18.12
2023-04-02T11:25:29.740Z,18.16
2023-04-02T11:28:34.346Z,18.33
2023-04-02T11:31:36.965Z,18.59
2023-04-02T11:34:42.866Z,18.34
2023-04-02T11:37:46.148Z,18.34
2023-04-02T11:41:00.780Z,18.16
2023-04-02T11:44:03.178Z,17.88
2023-04-02T11:47:18.069Z,17.76
2023-04-02T11:50:34.760Z,17.89
2023-04-02T11:53:37.348Z,17.49
2023-04-02T11:57:05.164Z,17.24
2023-04-02T12:00:33.223Z,16.97
2023-04-02T12:04:06.089Z,16.96
2023-04-02T12:07:35.948Z,17.17
2023-04-02T12:10:53.659Z,17.37
2023-04-02T12:13:58.532Z,17.55
2023-04-02T12:17:02.654Z,17.66
2023-04-02T12:20:10.331Z,17.48
2023-04-02T12:23:22.140Z,17.55
2023-04-02T12:26:37.089Z,17.60
2023-04-02T12:29:39.338Z,17.95
2023-04-02T12:32:41.910Z,17.93
2023-04-02T12:35:45.600Z,17.92
2023-04-02T12:38:54.421Z,17.66
2023-04-02T12:41:57.731Z,17.54
2023-04-02T12:45:01.094Z,17.75
2023-04-02T12:48:06.185Z,17.25
2023-04-02T12:51:10.683Z,17.45
2023-04-02T12:54:20.709Z,17.56
2023-04-02T12:57:26.198Z,17.44
2023-04-02T13:00:32.293Z,17.26
2023-04-02T13:03:37.946Z,17.31
2023-04-02T13:06:47.467Z,17.31
2023-04-02T13:09:56.581Z,17.23
2023-04-02T13:13:03.529Z,17.24
2023-04-02T13:16:14.979Z,17.48
2023-04-02T13:19:17.108Z,17.61
2023-04-02T13:22:34.372Z,17.56
2023-04-02T13:25:39.102Z,17.71
2023-04-02T13:28:43.724Z,17.60
2023-04-02T13:31:46.037Z,17.41
2023-04-02T13:34:48.348Z,17.43
2023-04-02T13:37:52.915Z,17.42
2023-04-02T13:40:55.414Z,17.28
2023-04-02T13:44:00.670Z,17.04
2023-04-02T13:47:03.081Z,16.97
2023-04-02T13:50:05.709Z,17.05
2023-04-02T13:53:13.151Z,17.17
2023-04-02T13:56:15.549Z,17.33
2023-04-02T13:59:18.023Z,17.22
2023-04-02T14:02:25.617Z,17.16
2023-04-02T14:05:58.738Z,17.25
2023-04-02T14:09:04.205Z,17.12
2023-04-02T14:12:36.186Z,17.18
2023-04-02T14:16:01.918Z,17.26
2023-04-02T14:19:25.566Z,17.34
2023-04-02T14:22:42.748Z,17.42
2023-04-02T14:26:16.028Z,17.31
2023-04-02T14:29:40.270Z,17.35
2023-04-02T14:33:01.446Z,17.34
2023-04-02T14:36:11.414Z,17.27
2023-04-02T14:39:19.656Z,17.15
2023-04-02T14:42:27.576Z,16.93
2023-04-02T14:45:51.746Z,16.79
2023-04-02T14:48:59.238Z,16.74
2023-04-02T14:52:06.762Z,16.51
2023-04-02T14:55:21.639Z,16.08
2023-04-02T14:58:33.410Z,15.76
2023-04-02T15:01:43.269Z,15.39
2023-04-02T15:05:01.837Z,15.23
2023-04-02T15:08:30.552Z,15.09
2023-04-02T15:11:39.356Z,14.63
2023-04-02T15:14:52.440Z,14.75
2023-04-02T15:17:54.765Z,14.63
2023-04-02T15:21:31.460Z,14.51
2023-04-02T15:24:58.641Z,14.13
2023-04-02T15:28:07.303Z,13.69
2023-04-02T15:31:15.901Z,13.49
2023-04-02T15:34:32.037Z,13.45
2023-04-02T15:38:22.706Z,13.41
2023-04-02T15:41:32.931Z,13.35
2023-04-02T15:44:44.346Z,13.32
2023-04-02T15:48:07.923Z,13.35
2023-04-02T15:51:28.359Z,13.31
2023-04-02T15:54:42.378Z,13.23
2023-04-02T15:58:03.555Z,13.24
2023-04-02T16:01:18.784Z,13.24
2023-04-02T16:04:24.191Z,13.24
2023-04-02T16:07:52.065Z,13.33
2023-04-02T16:10:54.403Z,13.40
2023-04-02T16:14:18.286Z,13.37
2023-04-02T16:17:36.942Z,13.44
2023-04-02T16:20:47.454Z,13.52
2023-04-02T16:23:53.302Z,13.59
2023-04-02T16:27:14.808Z,13.69
2023-04-02T16:30:37.447Z,13.85
2023-04-02T16:34:09.440Z,14.02
2023-04-02T16:37:33.533Z,14.20
2023-04-02T16:41:08.840Z,14.26
2023-04-02T16:44:59.778Z,14.36
2023-04-02T16:48:15.497Z,14.01
2023-04-02T16:51:35.303Z,13.24
2023-04-02T16:54:49.136Z,13.45
2023-04-02T16:58:23.866Z,12.86
2023-04-02T17:01:45.026Z,13.02
2023-04-02T17:05:02.026Z,13.00
2023-04-02T17:08:28.790Z,13.04
2023-04-02T17:11:43.134Z,13.05
2023-04-02T17:15:05.790Z,13.29
2023-04-02T17:18:21.744Z,13.32
2023-04-02T17:21:26.525Z,13.38
2023-04-02T17:24:53.865Z,13.43
2023-04-02T17:27:56.880Z,13.30
2023-04-02T17:31:04.203Z,13.32
2023-04-02T17:34:24.315Z,13.26
2023-04-02T17:37:27.674Z,13.18
2023-04-02T17:40:43.166Z,13.09
2023-04-02T17:43:46.177Z,12.99
2023-04-02T17:47:00.885Z,12.93
2023-04-02T17:50:12.271Z,12.74
2023-04-02T17:53:36.872Z,12.71
2023-04-02T17:57:13.172Z,12.62
2023-04-02T18:00:33.559Z,12.52
2023-04-02T18:03:38.420Z,12.23
2023-04-02T18:06:52.072Z,12.12
2023-04-02T18:10:03.309Z,12.13
2023-04-02T18:13:08.250Z,12.17
2023-04-02T18:16:17.152Z,12.00
2023-04-02T18:19:50.127Z,11.82
2023-04-02T18:23:01.373Z,11.88
2023-04-02T18:26:06.571Z,11.85
2023-04-02T18:29:55.765Z,11.73
2023-04-02T18:33:29.727Z,11.81
2023-04-02T18:36:41.085Z,11.61
2023-04-02T18:39:49.265Z,11.47
2023-04-02T18:43:06.692Z,11.47
2023-04-02T18:46:22.800Z,11.44
2023-04-02T18:49:47.224Z,11.29
2023-04-02T18:52:50.856Z,11.20
2023-04-02T18:56:07.433Z,11.20
2023-04-02T18:59:15.709Z,11.18
2023-04-02T19:02:23.561Z,11.06
2023-04-02T19:05:41.405Z,11.07
2023-04-02T19:09:11.196Z,11.04
2023-04-02T19:12:19.353Z,10.97
2023-04-02T19:15:26.446Z,11.00
2023-04-02T19:18:51.223Z,10.95
2023-04-02T19:22:11.980Z,10.95
2023-04-02T19:25:33.073Z,10.78
2023-04-02T19:29:00.052Z,10.77
2023-04-02T19:32:12.975Z,10.72
2023-04-02T19:35:26.968Z,10.68
2023-04-02T19:38:44.580Z,10.67
2023-04-02T19:41:52.403Z,10.62
2023-04-02T19:44:59.489Z,10.55
2023-04-02T19:48:28.241Z,10.60
2023-04-02T19:51:33.588Z,10.46
2023-04-02T19:54:41.038Z,10.63
2023-04-02T19:57:46.406Z,10.52
2023-04-02T20:00:53.439Z,10.27
2023-04-02T20:03:55.741Z,10.36
2023-04-02T20:07:00.603Z,10.18
2023-04-02T20:10:05.566Z,10.15
2023-04-02T20:13:10.894Z,10.14
2023-04-02T20:16:14.515Z,10.02
2023-04-02T20:19:16.933Z,10.04
2023-04-02T20:22:19.286Z,10.05
2023-04-02T20:25:24.045Z,9.96
2023-04-02T20:28:30.096Z,9.85
2023-04-02T20:31:36.211Z,9.94
2023-04-02T20:34:39.140Z,10.03
2023-04-02T20:37:42.130Z,10.03
2023-04-02T20:40:45.313Z,9.92
2023-04-02T20:43:47.855Z,9.90
2023-04-02T20:46:52.719Z,9.96
2023-04-02T20:49:55.140Z,9.89
2023-04-02T20:53:01.666Z,9.76
2023-04-02T20:56:07.324Z,9.76
2023-04-02T20:59:09.539Z,9.71
2023-04-02T21:02:12.149Z,9.67
2023-04-02T21:05:14.505Z,9.70
2023-04-02T21:08:16.832Z,9.65
2023-04-02T21:11:19.933Z,9.67
2023-04-02T21:14:24.792Z,9.54
2023-04-02T21:17:30.049Z,9.49
2023-04-02T21:20:33.411Z,9.61
2023-04-02T21:23:38.693Z,9.54
2023-04-02T21:26:43.759Z,9.66
2023-04-02T21:29:48.036Z,9.62
2023-04-02T21:32:50.343Z,9.64
2023-04-02T21:35:55.992Z,9.60
2023-04-02T21:39:01.061Z,9.51
2023-04-02T21:42:03.688Z,9.34
2023-04-02T21:45:09.262Z,9.33
2023-04-02T21:48:11.656Z,9.24
2023-04-02T21:51:16.812Z,9.29
2023-04-02T21:54:22.295Z,9.17
2023-04-02T21:57:31.675Z,9.03
2023-04-02T22:00:34.038Z,8.97
2023-04-02T22:03:39.500Z,9.05
2023-04-02T22:06:42.556Z,9.01
2023-04-02T22:09:44.755Z,8.93
2023-04-02T22:12:49.474Z,8.92
2023-04-02T22:16:00.232Z,8.77
2023-04-02T22:19:08.764Z,8.77
2023-04-02T22:22:14.243Z,8.78
2023-04-02T22:25:16.871Z,8.70
2023-04-02T22:28:22.143Z,8.89
2023-04-02T22:31:29.481Z,8.84
2023-04-02T22:34:38.736Z,8.81
2023-04-02T22:37:41.111Z,8.85
2023-04-02T22:40:45.941Z,8.93
2023-04-02T22:43:48.948Z,8.88
2023-04-02T22:46:53.938Z,9.01
2023-04-02T22:49:58.976Z,8.85
2023-04-02T22:53:01.376Z,8.78
2023-04-02T22:56:13.279Z,8.77
2023-04-02T22:59:15.585Z,8.69
2023-04-02T23:02:17.938Z,8.57
2023-04-02T23:05:20.899Z,8.62
2023-04-02T23:08:25.600Z,8.67
2023-04-02T23:11:28.747Z,8.59
2023-04-02T23:14:31.060Z,8.44
2023-04-02T23:17:38.386Z,8.47
2023-04-02T23:20:41.146Z,8.35
2023-04-02T23:23:49.279Z,8.40
2023-04-02T23:26:57.168Z,8.42
2023-04-02T23:30:01.762Z,8.47
2023-04-02T23:33:04.827Z,8.45
2023-04-02T23:36:17.082Z,8.50
2023-04-02T23:39:22.988Z,8.38
2023-04-02T23:42:28.414Z,8.45
2023-04-02T23:45:33.663Z,8.43
2023-04-02T23:48:35.936Z,8.36
2023-04-02T23:51:40.924Z,8.41
2023-04-02T23:54:45.691Z,8.47
2023-04-02T23:57:50.032Z,8.52
